Tamarack — D5EY8 — position and weather

sailwx.info

Track history (hours):
 
Tides and Currents Weather Stations Pressure Air Temp Water Temp Dewpoint Dewpoint Depression Visibility Wind Speed Wind Dir Waves Ship Positions

Tamarack

Last reported at 2017-Oct-20 10:58 UTC. Time now 2017-Oct-20 11:03 UTC.
Position N 37°52' W 073°58'.

Length 189 m; draft 6.2 m.

Type: Cargo ship. MMSI: 636016198.

Date/timePositionNaut miles runAvg speedWind from/ knotsBaromVisibWave heightAir tempDewpointWater temp
2017-Oct-20 10:58N 37°52' W 073°58'0 0.4
2017-Oct-20 10:30N 37°52' W 073°58'0 0.4
2017-Oct-20 10:00N 37°52' W 073°58'0 0.4
2017-Oct-20 09:30N 37°52' W 073°58'0 0.4
2017-Oct-20 09:00N 37°52' W 073°58'0 0.5
2017-Oct-20 08:30N 37°52' W 073°59'0 0.5
2017-Oct-20 08:00N 37°51' W 073°59'0 0.6
2017-Oct-20 07:30N 37°51' W 073°59'0 0.4
2017-Oct-20 06:59N 37°51' W 073°59'0 0.5
2017-Oct-20 06:24N 37°51' W 073°60'0 0.5
2017-Oct-20 05:49N 37°51' W 073°60'1 0.4
2017-Oct-20 03:40N 37°50' W 073°59'0 0.6
2017-Oct-20 03:30N 37°50' W 073°59'0 0.6
2017-Oct-20 02:54N 37°50' W 073°59'0 0.8
2017-Oct-20 02:27N 37°50' W 073°58'0 0.8
2017-Oct-20 02:00N 37°50' W 073°58'1 1.0
2017-Oct-20 01:12N 37°50' W 073°57'0 1.4
2017-Oct-20 01:00N 37°50' W 073°57'1 1.3
2017-Oct-20 00:30N 37°50' W 073°56'1 1.3
2017-Oct-20 00:00N 37°50' W 073°55'1 1.2
2017-Oct-19 23:19N 37°50' W 073°54'1 1.0
2017-Oct-19 21:50N 37°51' W 073°52'0 0.8
2017-Oct-19 21:26N 37°51' W 073°52'0 0.7
2017-Oct-19 20:56N 37°52' W 073°52'0 0.7
2017-Oct-19 20:21N 37°52' W 073°51'8 1.6
2017-Oct-19 15:19N 37°59' W 073°47'712.5
2017-Oct-19 14:47N 38°06' W 073°47'1112.5
2017-Oct-19 13:54N 38°17' W 073°44'512.8
2017-Oct-19 13:30N 38°22' W 073°43'713.1
2017-Oct-19 13:00N 38°28' W 073°41'612.9
2017-Oct-19 12:30N 38°34' W 073°39'712.6
2017-Oct-19 11:59N 38°41' W 073°38'612.3
2017-Oct-19 11:30N 38°47' W 073°37'612.4
2017-Oct-19 11:00N 38°52' W 073°34'612.5
2017-Oct-19 10:30N 38°59' W 073°33'612.6
2017-Oct-19 10:00N 39°05' W 073°31'612.6
2017-Oct-19 09:30N 39°11' W 073°30'612.5
2017-Oct-19 09:00N 39°17' W 073°28'2212.6
2017-Oct-19 07:14N 39°39' W 073°23'3311.6
2017-Oct-19 04:22N 40°12' W 073°32'513.3
2017-Oct-19 04:00N 40°15' W 073°36'713.2
2017-Oct-19 03:30N 40°20' W 073°42'713.2
2017-Oct-19 02:59N 40°25' W 073°48'510.4
2017-Oct-19 02:30N 40°28' W 073°53'612.5
2017-Oct-19 02:01N 40°31' W 074°00'611.1
2017-Oct-19 01:30N 40°36' W 074°03'4 7.2
2017-Oct-19 01:01N 40°39' W 074°06'2 4.3
2017-Oct-19 00:31N 40°41' W 074°08'1 1.2
2017-Oct-19 00:01N 40°41' W 074°08'0 0.0
2017-Oct-18 23:30N 40°41' W 074°08'0 0.0
2017-Oct-18 23:00N 40°41' W 074°08'0 0.0
2017-Oct-18 22:30N 40°41' W 074°08'0 0.0
2017-Oct-18 22:00N 40°41' W 074°08'0 0.0
2017-Oct-18 21:30N 40°41' W 074°08'0 0.0
2017-Oct-18 21:00N 40°41' W 074°08'0 0.0
2017-Oct-18 20:30N 40°41' W 074°08'0 0.0
2017-Oct-18 20:00N 40°41' W 074°08'0 0.0
2017-Oct-18 19:30N 40°41' W 074°08'0 0.0
2017-Oct-18 19:00N 40°41' W 074°08'0 0.0
2017-Oct-18 18:30N 40°41' W 074°08'0 0.0
2017-Oct-18 18:00N 40°41' W 074°08'0 0.0
2017-Oct-18 17:30N 40°41' W 074°08'0 0.0
2017-Oct-18 16:57N 40°41' W 074°08'0 0.0
2017-Oct-18 16:30N 40°41' W 074°08'0 0.0
2017-Oct-18 16:00N 40°41' W 074°08'0 0.0
2017-Oct-18 15:30N 40°41' W 074°08'0 0.0
2017-Oct-18 14:57N 40°41' W 074°08'0 0.0
2017-Oct-18 14:00N 40°41' W 074°08'0 0.0
2017-Oct-18 13:30N 40°41' W 074°08'0 0.0
2017-Oct-18 13:00N 40°41' W 074°08'0 0.0
2017-Oct-18 12:30N 40°41' W 074°08'0 0.0
2017-Oct-18 12:00N 40°41' W 074°08'0 0.0
2017-Oct-18 11:30N 40°41' W 074°08'0 0.0
2017-Oct-18 11:00N 40°41' W 074°08'0 0.0
2017-Oct-18 10:27N 40°41' W 074°08'0 0.0
2017-Oct-18 10:00N 40°41' W 074°08'0 0.0
2017-Oct-18 09:30N 40°41' W 074°08'0 0.0
2017-Oct-18 09:00N 40°41' W 074°08'0 0.0
2017-Oct-18 08:30N 40°41' W 074°08'0 0.0
2017-Oct-18 08:00N 40°41' W 074°08'0 0.0
2017-Oct-18 07:30N 40°41' W 074°08'0 0.0
2017-Oct-18 07:00N 40°41' W 074°08'0 0.0
2017-Oct-18 06:30N 40°41' W 074°08'0 0.0
2017-Oct-18 06:00N 40°41' W 074°08'0 0.0
2017-Oct-18 05:30N 40°41' W 074°08'0 0.0
2017-Oct-18 05:00N 40°41' W 074°08'0 0.0
2017-Oct-18 04:30N 40°41' W 074°08'0 0.0
2017-Oct-18 04:00N 40°41' W 074°08'0 0.0
2017-Oct-18 03:30N 40°41' W 074°08'0 0.0
2017-Oct-18 03:00N 40°41' W 074°08'0 0.0
2017-Oct-18 02:30N 40°41' W 074°08'0 0.0
2017-Oct-18 02:00N 40°41' W 074°08'0 0.0
2017-Oct-18 01:30N 40°41' W 074°08'0 0.0
2017-Oct-18 01:00N 40°41' W 074°08'0 0.0
2017-Oct-18 00:27N 40°41' W 074°08'0 0.0
2017-Oct-18 00:00N 40°41' W 074°08'0 0.0
2017-Oct-17 23:30N 40°41' W 074°08'0 0.0
2017-Oct-17 23:00N 40°41' W 074°08'0 0.0
2017-Oct-17 22:30N 40°41' W 074°08'0 0.0
2017-Oct-17 22:00N 40°41' W 074°08'0 0.0
2017-Oct-17 21:30N 40°41' W 074°08'0 0.0
2017-Oct-17 21:00N 40°41' W 074°08'0 0.0
2017-Oct-17 20:30N 40°41' W 074°08'0 0.0
2017-Oct-17 20:00N 40°41' W 074°08'0 0.0
2017-Oct-17 19:30N 40°41' W 074°08'0 0.0
2017-Oct-17 19:00N 40°41' W 074°08'0 0.0
2017-Oct-17 18:30N 40°41' W 074°08'0 0.0
2017-Oct-17 18:00N 40°41' W 074°08'0 0.0
2017-Oct-17 17:30N 40°41' W 074°08'0 0.0
2017-Oct-17 17:00N 40°41' W 074°08'0 0.0
2017-Oct-17 16:30N 40°41' W 074°08'0 0.0
2017-Oct-17 16:00N 40°41' W 074°08'0 0.0
2017-Oct-17 15:30N 40°41' W 074°08'0 0.0
2017-Oct-17 15:00N 40°41' W 074°08'0 0.0
2017-Oct-17 14:30N 40°41' W 074°08'0 0.0
2017-Oct-17 14:00N 40°41' W 074°08'0 0.0
2017-Oct-17 13:30N 40°41' W 074°08'0 0.0
2017-Oct-17 13:00N 40°41' W 074°08'0 0.0
2017-Oct-17 12:30N 40°41' W 074°08'0 0.0
2017-Oct-17 12:00N 40°41' W 074°08'0 0.0
2017-Oct-17 11:30N 40°41' W 074°08'0 0.1
2017-Oct-17 11:00N 40°41' W 074°08'0 0.0
2017-Oct-17 10:30N 40°41' W 074°08'0 0.0
2017-Oct-17 10:00N 40°41' W 074°08'0 0.0
2017-Oct-17 09:30N 40°41' W 074°08'0 0.0
2017-Oct-17 09:00N 40°41' W 074°08'0 0.0
2017-Oct-17 08:30N 40°41' W 074°08'0 0.0
2017-Oct-17 08:00N 40°41' W 074°08'0 0.0
2017-Oct-17 07:30N 40°41' W 074°08'0 0.0
2017-Oct-17 07:00N 40°41' W 074°08'0 0.0
2017-Oct-17 06:30N 40°41' W 074°08'0 0.0
2017-Oct-17 06:00N 40°41' W 074°08'0 0.0
2017-Oct-17 05:30N 40°41' W 074°08'0 0.0
2017-Oct-17 05:00N 40°41' W 074°08'0 0.0
2017-Oct-17 04:30N 40°41' W 074°08'0 0.0
2017-Oct-17 04:00N 40°41' W 074°08'0 0.0
2017-Oct-17 03:30N 40°41' W 074°08'0 0.0
2017-Oct-17 03:00N 40°41' W 074°08'0 0.0
2017-Oct-17 02:30N 40°41' W 074°08'0 0.0
2017-Oct-17 01:57N 40°41' W 074°08'0 0.0
2017-Oct-17 01:30N 40°41' W 074°08'0 0.0
2017-Oct-17 01:00N 40°41' W 074°08'0 0.0
2017-Oct-17 00:30N 40°41' W 074°08'0 0.0
2017-Oct-17 00:00N 40°41' W 074°08'0 0.0
2017-Oct-16 23:30N 40°41' W 074°08'0 0.0
2017-Oct-16 23:00N 40°41' W 074°08'0 0.0
2017-Oct-16 22:30N 40°41' W 074°08'0 0.0
2017-Oct-16 22:00N 40°41' W 074°08'0 0.0
2017-Oct-16 21:30N 40°41' W 074°08'0 0.0
2017-Oct-16 21:00N 40°41' W 074°08'0 0.0
2017-Oct-16 20:30N 40°41' W 074°08'0 0.0
2017-Oct-16 20:00N 40°41' W 074°08'0 0.0
2017-Oct-16 19:30N 40°41' W 074°08'0 0.0
2017-Oct-16 19:00N 40°41' W 074°08'0 0.0
2017-Oct-16 18:30N 40°41' W 074°08'0 0.0
2017-Oct-16 18:00N 40°41' W 074°08'0 0.0
2017-Oct-16 17:30N 40°41' W 074°08'0 0.0
2017-Oct-16 17:00N 40°41' W 074°08'0 0.0
2017-Oct-16 16:30N 40°41' W 074°08'0 0.0
2017-Oct-16 16:00N 40°41' W 074°08'0 0.0
2017-Oct-16 15:30N 40°41' W 074°08'0 0.0
2017-Oct-16 15:00N 40°41' W 074°08'0 0.0
2017-Oct-16 14:30N 40°41' W 074°08'0 0.0
2017-Oct-16 13:30N 40°41' W 074°08'0 0.0
2017-Oct-16 13:00N 40°41' W 074°08'0 0.0
2017-Oct-16 12:30N 40°41' W 074°08'0 0.0
2017-Oct-16 12:00N 40°41' W 074°08'0 0.0
2017-Oct-16 11:30N 40°41' W 074°08'0 0.0
2017-Oct-16 10:57N 40°41' W 074°08'0 0.0
2017-Oct-16 10:30N 40°41' W 074°08'0 0.0
2017-Oct-16 10:00N 40°41' W 074°08'0 0.0
2017-Oct-16 09:30N 40°41' W 074°08'0 0.0
2017-Oct-16 09:00N 40°41' W 074°08'0 0.0
2017-Oct-16 08:30N 40°41' W 074°08'0 0.0
2017-Oct-16 08:00N 40°41' W 074°08'0 0.0
2017-Oct-16 07:30N 40°41' W 074°08'0 0.0
2017-Oct-16 07:00N 40°41' W 074°08'0 0.0
2017-Oct-16 06:30N 40°41' W 074°08'0 0.0
2017-Oct-16 06:00N 40°41' W 074°08'0 0.0
2017-Oct-16 05:30N 40°41' W 074°08'0 0.0
2017-Oct-16 05:00N 40°41' W 074°08'0 0.0
2017-Oct-16 04:30N 40°41' W 074°08'0 0.0
2017-Oct-16 04:00N 40°41' W 074°08'0 0.0
2017-Oct-16 03:30N 40°41' W 074°08'0 0.0
2017-Oct-16 02:57N 40°41' W 074°08'0 0.0
2017-Oct-16 02:30N 40°41' W 074°08'0 0.0
2017-Oct-16 02:00N 40°41' W 074°08'0 0.0
2017-Oct-16 01:30N 40°41' W 074°08'0 0.0
2017-Oct-16 01:00N 40°41' W 074°08'0 0.0
2017-Oct-16 00:30N 40°41' W 074°08'0 0.0
2017-Oct-16 00:00N 40°41' W 074°08'0 0.0
2017-Oct-15 23:30N 40°41' W 074°08'0 0.0
2017-Oct-15 23:00N 40°41' W 074°08'0 0.0
2017-Oct-15 22:30N 40°41' W 074°08'0 0.0
2017-Oct-15 22:00N 40°41' W 074°08'0 0.0
2017-Oct-15 21:30N 40°41' W 074°08'0 0.0
2017-Oct-15 21:00N 40°41' W 074°08'0 0.0
2017-Oct-15 20:30N 40°41' W 074°08'0 0.0
2017-Oct-15 20:00N 40°41' W 074°08'0 0.0
2017-Oct-15 19:30N 40°41' W 074°08'0 0.0
2017-Oct-15 19:00N 40°41' W 074°08'0 0.0
2017-Oct-15 18:30N 40°41' W 074°08'0 0.0
2017-Oct-15 18:00N 40°41' W 074°08'0 0.0
2017-Oct-15 17:30N 40°41' W 074°08'0 0.0
2017-Oct-15 17:00N 40°41' W 074°08'0 0.0
2017-Oct-15 16:30N 40°41' W 074°08'0 0.0
2017-Oct-15 16:00N 40°41' W 074°08'0 0.0
2017-Oct-15 15:30N 40°41' W 074°08'0 0.0
2017-Oct-15 15:00N 40°41' W 074°08'0 0.0
2017-Oct-15 14:00N 40°41' W 074°08'0 0.0
2017-Oct-15 13:30N 40°41' W 074°08'0 0.0
2017-Oct-15 13:00N 40°41' W 074°08'0 0.0
2017-Oct-15 12:30N 40°41' W 074°08'0 0.0
2017-Oct-15 12:00N 40°41' W 074°08'0 0.0
2017-Oct-15 11:30N 40°41' W 074°08'0 0.0
2017-Oct-15 11:00N 40°41' W 074°08'0 0.0
2017-Oct-15 10:30N 40°41' W 074°08'0 0.0
2017-Oct-15 10:00N 40°41' W 074°08'0 0.0
2017-Oct-15 09:30N 40°41' W 074°08'0 0.0
2017-Oct-15 09:00N 40°41' W 074°08'0 0.0
2017-Oct-15 08:30N 40°41' W 074°08'0 0.0
2017-Oct-15 08:00N 40°41' W 074°08'0 0.0
2017-Oct-15 07:30N 40°41' W 074°08'0 0.0
2017-Oct-15 07:00N 40°41' W 074°08'0 0.0
2017-Oct-15 06:30N 40°41' W 074°08'0 0.0
2017-Oct-15 06:00N 40°41' W 074°08'0 0.0
2017-Oct-15 05:30N 40°41' W 074°08'0 0.0
2017-Oct-15 05:00N 40°41' W 074°08'0 0.0
2017-Oct-15 04:30N 40°41' W 074°08'0 0.0
2017-Oct-15 04:00N 40°41' W 074°08'0 0.0
2017-Oct-15 03:30N 40°41' W 074°08'0 0.0
2017-Oct-15 03:00N 40°41' W 074°08'0 0.0
2017-Oct-15 02:30N 40°41' W 074°08'0 0.0
2017-Oct-15 02:00N 40°41' W 074°08'0 0.0
2017-Oct-15 01:30N 40°41' W 074°08'0 0.0
2017-Oct-15 01:00N 40°41' W 074°08'0 0.0
2017-Oct-15 00:30N 40°41' W 074°08'0 0.0
2017-Oct-15 00:00N 40°41' W 074°08'0 0.0
2017-Oct-14 23:30N 40°41' W 074°08'0 0.0
2017-Oct-14 23:00N 40°41' W 074°08'0 0.0
2017-Oct-14 22:30N 40°41' W 074°08'0 0.0
2017-Oct-14 21:57N 40°41' W 074°08'0 0.0
2017-Oct-14 21:30N 40°41' W 074°08'0 0.0
2017-Oct-14 20:57N 40°41' W 074°08'0 0.0
2017-Oct-14 20:27N 40°41' W 074°08'0 0.0
2017-Oct-14 20:00N 40°41' W 074°08'0 0.0
2017-Oct-14 19:30N 40°41' W 074°08'0 0.0
2017-Oct-14 19:00N 40°41' W 074°08'0 0.0
2017-Oct-14 18:27N 40°41' W 074°08'0 0.0
2017-Oct-14 18:00N 40°41' W 074°08'0 0.0
2017-Oct-14 17:30N 40°41' W 074°08'0 0.0
2017-Oct-14 17:00N 40°41' W 074°08'0 0.0
2017-Oct-14 16:30N 40°41' W 074°08'0 0.0
2017-Oct-14 16:00N 40°41' W 074°08'0 0.0
2017-Oct-14 15:30N 40°41' W 074°08'0 0.0
2017-Oct-14 15:00N 40°41' W 074°08'0 0.0
2017-Oct-14 14:30N 40°41' W 074°08'0 0.0
2017-Oct-14 13:57N 40°41' W 074°08'0 0.0
2017-Oct-14 13:30N 40°41' W 074°08'0 0.0
2017-Oct-14 12:57N 40°41' W 074°08'0 0.0
2017-Oct-14 12:30N 40°41' W 074°08'0 0.0
2017-Oct-14 11:57N 40°41' W 074°08'0 0.0
2017-Oct-14 11:30N 40°41' W 074°08'0 0.0
2017-Oct-14 11:00N 40°41' W 074°08'0 0.0
2017-Oct-14 10:30N 40°41' W 074°08'0 0.0
2017-Oct-14 10:00N 40°41' W 074°08'0 0.0
2017-Oct-14 09:30N 40°41' W 074°08'0 0.0
2017-Oct-14 08:57N 40°41' W 074°08'0 0.0
2017-Oct-14 08:30N 40°41' W 074°08'0 0.0
2017-Oct-14 08:00N 40°41' W 074°08'0 0.0
2017-Oct-14 07:27N 40°41' W 074°08'0 0.0
2017-Oct-14 07:00N 40°41' W 074°08'0 0.0
2017-Oct-14 06:30N 40°41' W 074°08'0 0.0
2017-Oct-14 06:00N 40°41' W 074°08'0 0.0
2017-Oct-14 05:30N 40°41' W 074°08'0 0.0
2017-Oct-14 05:00N 40°41' W 074°08'0 0.0
2017-Oct-14 04:30N 40°41' W 074°08'0 0.0
2017-Oct-14 04:00N 40°41' W 074°08'0 0.0
2017-Oct-14 03:30N 40°41' W 074°08'0 0.1
2017-Oct-14 02:57N 40°41' W 074°08'0 0.0
2017-Oct-14 02:30N 40°41' W 074°08'0 0.0
2017-Oct-14 02:00N 40°41' W 074°08'0 0.0
2017-Oct-14 01:30N 40°41' W 074°08'0 0.0
2017-Oct-14 01:00N 40°41' W 074°08'0 0.0
2017-Oct-14 00:30N 40°41' W 074°08'0 0.0
2017-Oct-14 00:00N 40°41' W 074°08'0 0.0
2017-Oct-13 23:30N 40°41' W 074°08'0 0.0
2017-Oct-13 23:00N 40°41' W 074°08'0 0.0
2017-Oct-13 22:27N 40°41' W 074°08'0 0.0
2017-Oct-13 22:00N 40°41' W 074°08'0 0.0
2017-Oct-13 21:30N 40°41' W 074°08'0 0.0
2017-Oct-13 21:00N 40°41' W 074°08'0 0.0
2017-Oct-13 20:30N 40°41' W 074°08'0 0.0
2017-Oct-13 20:00N 40°41' W 074°08'0 0.0
2017-Oct-13 19:30N 40°41' W 074°08'0 0.0
2017-Oct-13 19:00N 40°41' W 074°08'0 0.0
2017-Oct-13 18:27N 40°41' W 074°08'0 0.0
2017-Oct-13 18:00N 40°41' W 074°08'0 0.0
2017-Oct-13 17:30N 40°41' W 074°08'0 0.0
2017-Oct-13 17:00N 40°41' W 074°08'0 0.0
2017-Oct-13 16:30N 40°41' W 074°08'0 0.0
2017-Oct-13 16:00N 40°41' W 074°08'0 0.0
2017-Oct-13 15:27N 40°41' W 074°08'0 0.0
2017-Oct-13 15:00N 40°41' W 074°08'0 0.0
2017-Oct-13 14:27N 40°41' W 074°08'0 0.0
2017-Oct-13 14:00N 40°41' W 074°08'0 0.0
2017-Oct-13 13:30N 40°41' W 074°08'0 0.0
2017-Oct-13 12:57N 40°41' W 074°08'0 0.0
2017-Oct-13 12:30N 40°41' W 074°08'0 0.0
2017-Oct-13 12:00N 40°41' W 074°08'0 0.0
2017-Oct-13 11:30N 40°41' W 074°08'0 0.0
2017-Oct-13 11:00N 40°41' W 074°08'0 0.0
2017-Oct-13 10:30N 40°41' W 074°08'0 0.0
2017-Oct-13 10:00N 40°41' W 074°08'0 0.0
2017-Oct-13 09:30N 40°41' W 074°08'0 0.0
2017-Oct-13 09:00N 40°41' W 074°08'0 0.0
2017-Oct-13 08:30N 40°41' W 074°08'0 0.0
2017-Oct-13 08:00N 40°41' W 074°08'0 0.0
2017-Oct-13 07:30N 40°41' W 074°08'0 0.0
2017-Oct-13 07:00N 40°41' W 074°08'0 0.0
2017-Oct-13 06:27N 40°41' W 074°08'0 0.0
2017-Oct-13 06:00N 40°41' W 074°08'0 0.0
2017-Oct-13 05:30N 40°41' W 074°08'0 0.0
2017-Oct-13 05:00N 40°41' W 074°08'0 0.0
2017-Oct-13 04:30N 40°41' W 074°08'0 0.0
2017-Oct-13 03:57N 40°41' W 074°08'0 0.0
2017-Oct-13 03:30N 40°41' W 074°08'0 0.0
2017-Oct-13 03:00N 40°41' W 074°08'0 0.0
2017-Oct-13 02:30N 40°41' W 074°08'0 0.0
2017-Oct-13 02:00N 40°41' W 074°08'0 0.0
2017-Oct-13 01:30N 40°41' W 074°08'0 0.0
2017-Oct-13 00:57N 40°41' W 074°08'0 0.0
2017-Oct-13 00:30N 40°41' W 074°08'0 0.0
2017-Oct-13 00:00N 40°41' W 074°08'0 0.0
2017-Oct-12 23:27N 40°41' W 074°08'0 0.0
2017-Oct-12 23:00N 40°41' W 074°08'0 0.0
2017-Oct-12 22:30N 40°41' W 074°08'0 0.0
2017-Oct-12 21:54N 40°41' W 074°08'0 0.0
2017-Oct-12 21:27N 40°41' W 074°08'0 0.0
2017-Oct-12 20:57N 40°41' W 074°08'0 0.0
2017-Oct-12 20:30N 40°41' W 074°08'0 0.0
2017-Oct-12 19:57N 40°41' W 074°08'0 0.0
2017-Oct-12 19:30N 40°41' W 074°08'0 0.0
2017-Oct-12 19:00N 40°41' W 074°08'0 0.0
2017-Oct-12 18:30N 40°41' W 074°08'0 0.0
2017-Oct-12 18:00N 40°41' W 074°08'0 0.0
2017-Oct-12 17:30N 40°41' W 074°08'0 0.0
2017-Oct-12 17:00N 40°41' W 074°08'0 0.0
2017-Oct-12 16:30N 40°41' W 074°08'0 0.0
2017-Oct-12 16:00N 40°41' W 074°08'0 0.0
2017-Oct-12 15:30N 40°41' W 074°08'0 0.0
2017-Oct-12 14:54N 40°41' W 074°08'0 0.0
2017-Oct-12 14:27N 40°41' W 074°08'0 0.0
2017-Oct-12 14:00N 40°41' W 074°08'0 0.0
2017-Oct-12 13:30N 40°41' W 074°08'0 0.0
2017-Oct-12 13:00N 40°41' W 074°08'0 0.0
2017-Oct-12 12:27N 40°41' W 074°08'0 0.0
2017-Oct-12 11:51N 40°41' W 074°08'0 0.0
2017-Oct-12 11:27N 40°41' W 074°08'0 0.0
2017-Oct-12 10:57N 40°41' W 074°08'0 0.0
2017-Oct-12 10:30N 40°41' W 074°08'0 0.0
2017-Oct-12 10:00N 40°41' W 074°08'0 0.0
2017-Oct-12 09:30N 40°41' W 074°08'0 0.0
2017-Oct-12 09:00N 40°41' W 074°08'0 0.0
2017-Oct-12 08:27N 40°41' W 074°08'0 0.0
2017-Oct-12 07:57N 40°41' W 074°08'0 0.0
2017-Oct-12 07:30N 40°41' W 074°08'0 0.0
2017-Oct-12 06:57N 40°41' W 074°08'0 0.0
2017-Oct-12 06:30N 40°41' W 074°08'0 0.0
2017-Oct-12 06:00N 40°41' W 074°08'0 0.0
2017-Oct-12 05:30N 40°41' W 074°08'0 0.0
2017-Oct-12 05:00N 40°41' W 074°08'0 0.0
2017-Oct-12 04:30N 40°41' W 074°08'0 0.0
2017-Oct-12 04:00N 40°41' W 074°08'0 0.0
2017-Oct-12 03:30N 40°41' W 074°08'0 0.0
2017-Oct-12 02:57N 40°41' W 074°08'0 0.0
2017-Oct-12 02:27N 40°41' W 074°08'0 0.0
2017-Oct-12 02:00N 40°41' W 074°08'0 0.0
2017-Oct-12 01:30N 40°41' W 074°08'0 0.0
2017-Oct-12 01:00N 40°41' W 074°08'0 0.0
2017-Oct-12 00:30N 40°41' W 074°08'0 0.0
2017-Oct-11 23:57N 40°41' W 074°08'0 0.0
2017-Oct-11 23:30N 40°41' W 074°08'0 0.0
2017-Oct-11 23:00N 40°41' W 074°08'0 0.0
2017-Oct-11 22:30N 40°41' W 074°08'0 0.0
2017-Oct-11 21:54N 40°41' W 074°08'0 0.0
2017-Oct-11 21:24N 40°41' W 074°08'0 0.0
2017-Oct-11 20:54N 40°41' W 074°08'0 0.0
2017-Oct-11 20:24N 40°41' W 074°08'0 0.0
2017-Oct-11 20:00N 40°41' W 074°08'0 0.0
2017-Oct-11 19:30N 40°41' W 074°08'0 0.0
2017-Oct-11 19:00N 40°41' W 074°08'0 0.0
2017-Oct-11 18:30N 40°41' W 074°08'0 0.0
2017-Oct-11 18:00N 40°41' W 074°08'0 0.0
2017-Oct-11 17:30N 40°41' W 074°08'0 0.0
2017-Oct-11 17:00N 40°41' W 074°08'0 0.0
2017-Oct-11 00:00N 40°41' W 074°08'0 0.0
2017-Oct-10 23:30N 40°41' W 074°08'0 0.0
2017-Oct-10 23:00N 40°41' W 074°08'0 0.0
2017-Oct-10 22:30N 40°41' W 074°08'0 0.0
2017-Oct-10 22:00N 40°41' W 074°08'0 0.0
2017-Oct-10 21:30N 40°41' W 074°08'0 0.0
2017-Oct-10 21:00N 40°41' W 074°08'0 0.0
2017-Oct-10 20:30N 40°41' W 074°08'0 0.0
2017-Oct-10 20:00N 40°41' W 074°08'0 0.0
2017-Oct-10 19:27N 40°41' W 074°08'0 0.0
2017-Oct-10 18:57N 40°41' W 074°08'0 0.0
2017-Oct-10 18:30N 40°41' W 074°08'0 0.0
2017-Oct-10 18:00N 40°41' W 074°08'0 0.0
2017-Oct-10 17:30N 40°41' W 074°08'0 0.0
2017-Oct-10 17:00N 40°41' W 074°08'0 0.0
2017-Oct-10 16:30N 40°41' W 074°08'0 0.8
2017-Oct-10 16:00N 40°41' W 074°08'2 4.8
2017-Oct-10 15:30N 40°39' W 074°08'3 6.8
2017-Oct-10 15:00N 40°39' W 074°03'9 9.0
2017-Oct-10 14:00N 40°31' W 073°58'510.5
2017-Oct-10 13:30N 40°28' W 073°52'3 6.4
2017-Oct-10 13:00N 40°27' W 073°48'1 2.1
2017-Oct-10 12:20N 40°26' W 073°46'0 0.8
2017-Oct-10 12:00N 40°26' W 073°46'1 1.5
2017-Oct-10 11:25N 40°25' W 073°45'1 2.7
2017-Oct-10 11:00N 40°24' W 073°44'  
Track history (hours):
 
Tides and Currents Weather Stations Pressure Air Temp Water Temp Dewpoint Dewpoint Depression Visibility Wind Speed Wind Dir Waves Ship Positions

Tamarack

Last reported at 2017-Oct-20 10:58 UTC. Time now 2017-Oct-20 11:03 UTC.
Position N 37°52' W 073°58'.

Length 189 m; draft 6.2 m.

Type: Cargo ship. MMSI: 636016198.

Date/timePositionNaut miles runAvg speedWind from/ knotsBaromVisibWave heightAir tempDewpointWater temp
2017-Oct-20 10:58N 37°52' W 073°58'0 0.4
2017-Oct-20 10:30N 37°52' W 073°58'0 0.4
2017-Oct-20 10:00N 37°52' W 073°58'0 0.4
2017-Oct-20 09:30N 37°52' W 073°58'0 0.4
2017-Oct-20 09:00N 37°52' W 073°58'0 0.5
2017-Oct-20 08:30N 37°52' W 073°59'0 0.5
2017-Oct-20 08:00N 37°51' W 073°59'0 0.6
2017-Oct-20 07:30N 37°51' W 073°59'0 0.4
2017-Oct-20 06:59N 37°51' W 073°59'0 0.5
2017-Oct-20 06:24N 37°51' W 073°60'0 0.5
2017-Oct-20 05:49N 37°51' W 073°60'1 0.4
2017-Oct-20 03:40N 37°50' W 073°59'0 0.6
2017-Oct-20 03:30N 37°50' W 073°59'0 0.6
2017-Oct-20 02:54N 37°50' W 073°59'0 0.8
2017-Oct-20 02:27N 37°50' W 073°58'0 0.8
2017-Oct-20 02:00N 37°50' W 073°58'1 1.0
2017-Oct-20 01:12N 37°50' W 073°57'0 1.4
2017-Oct-20 01:00N 37°50' W 073°57'1 1.3
2017-Oct-20 00:30N 37°50' W 073°56'1 1.3
2017-Oct-20 00:00N 37°50' W 073°55'1 1.2
2017-Oct-19 23:19N 37°50' W 073°54'1 1.0
2017-Oct-19 21:50N 37°51' W 073°52'0 0.8
2017-Oct-19 21:26N 37°51' W 073°52'0 0.7
2017-Oct-19 20:56N 37°52' W 073°52'0 0.7
2017-Oct-19 20:21N 37°52' W 073°51'8 1.6
2017-Oct-19 15:19N 37°59' W 073°47'712.5
2017-Oct-19 14:47N 38°06' W 073°47'1112.5
2017-Oct-19 13:54N 38°17' W 073°44'512.8
2017-Oct-19 13:30N 38°22' W 073°43'713.1
2017-Oct-19 13:00N 38°28' W 073°41'612.9
2017-Oct-19 12:30N 38°34' W 073°39'712.6
2017-Oct-19 11:59N 38°41' W 073°38'612.3
2017-Oct-19 11:30N 38°47' W 073°37'612.4
2017-Oct-19 11:00N 38°52' W 073°34'612.5
2017-Oct-19 10:30N 38°59' W 073°33'612.6
2017-Oct-19 10:00N 39°05' W 073°31'612.6
2017-Oct-19 09:30N 39°11' W 073°30'612.5
2017-Oct-19 09:00N 39°17' W 073°28'2212.6
2017-Oct-19 07:14N 39°39' W 073°23'3311.6
2017-Oct-19 04:22N 40°12' W 073°32'513.3
2017-Oct-19 04:00N 40°15' W 073°36'713.2
2017-Oct-19 03:30N 40°20' W 073°42'713.2
2017-Oct-19 02:59N 40°25' W 073°48'510.4
2017-Oct-19 02:30N 40°28' W 073°53'612.5
2017-Oct-19 02:01N 40°31' W 074°00'611.1
2017-Oct-19 01:30N 40°36' W 074°03'4 7.2
2017-Oct-19 01:01N 40°39' W 074°06'2 4.3
2017-Oct-19 00:31N 40°41' W 074°08'1 1.2
2017-Oct-19 00:01N 40°41' W 074°08'0 0.0
2017-Oct-18 23:30N 40°41' W 074°08'0 0.0
2017-Oct-18 23:00N 40°41' W 074°08'0 0.0
2017-Oct-18 22:30N 40°41' W 074°08'0 0.0
2017-Oct-18 22:00N 40°41' W 074°08'0 0.0
2017-Oct-18 21:30N 40°41' W 074°08'0 0.0
2017-Oct-18 21:00N 40°41' W 074°08'0 0.0
2017-Oct-18 20:30N 40°41' W 074°08'0 0.0
2017-Oct-18 20:00N 40°41' W 074°08'0 0.0
2017-Oct-18 19:30N 40°41' W 074°08'0 0.0
2017-Oct-18 19:00N 40°41' W 074°08'0 0.0
2017-Oct-18 18:30N 40°41' W 074°08'0 0.0
2017-Oct-18 18:00N 40°41' W 074°08'0 0.0
2017-Oct-18 17:30N 40°41' W 074°08'0 0.0
2017-Oct-18 16:57N 40°41' W 074°08'0 0.0
2017-Oct-18 16:30N 40°41' W 074°08'0 0.0
2017-Oct-18 16:00N 40°41' W 074°08'0 0.0
2017-Oct-18 15:30N 40°41' W 074°08'0 0.0
2017-Oct-18 14:57N 40°41' W 074°08'0 0.0
2017-Oct-18 14:00N 40°41' W 074°08'0 0.0
2017-Oct-18 13:30N 40°41' W 074°08'0 0.0
2017-Oct-18 13:00N 40°41' W 074°08'0 0.0
2017-Oct-18 12:30N 40°41' W 074°08'0 0.0
2017-Oct-18 12:00N 40°41' W 074°08'0 0.0
2017-Oct-18 11:30N 40°41' W 074°08'0 0.0
2017-Oct-18 11:00N 40°41' W 074°08'0 0.0
2017-Oct-18 10:27N 40°41' W 074°08'0 0.0
2017-Oct-18 10:00N 40°41' W 074°08'0 0.0
2017-Oct-18 09:30N 40°41' W 074°08'0 0.0
2017-Oct-18 09:00N 40°41' W 074°08'0 0.0
2017-Oct-18 08:30N 40°41' W 074°08'0 0.0
2017-Oct-18 08:00N 40°41' W 074°08'0 0.0
2017-Oct-18 07:30N 40°41' W 074°08'0 0.0
2017-Oct-18 07:00N 40°41' W 074°08'0 0.0
2017-Oct-18 06:30N 40°41' W 074°08'0 0.0
2017-Oct-18 06:00N 40°41' W 074°08'0 0.0
2017-Oct-18 05:30N 40°41' W 074°08'0 0.0
2017-Oct-18 05:00N 40°41' W 074°08'0 0.0
2017-Oct-18 04:30N 40°41' W 074°08'0 0.0
2017-Oct-18 04:00N 40°41' W 074°08'0 0.0
2017-Oct-18 03:30N 40°41' W 074°08'0 0.0
2017-Oct-18 03:00N 40°41' W 074°08'0 0.0
2017-Oct-18 02:30N 40°41' W 074°08'0 0.0
2017-Oct-18 02:00N 40°41' W 074°08'0 0.0
2017-Oct-18 01:30N 40°41' W 074°08'0 0.0
2017-Oct-18 01:00N 40°41' W 074°08'0 0.0
2017-Oct-18 00:27N 40°41' W 074°08'0 0.0
2017-Oct-18 00:00N 40°41' W 074°08'0 0.0
2017-Oct-17 23:30N 40°41' W 074°08'0 0.0
2017-Oct-17 23:00N 40°41' W 074°08'0 0.0
2017-Oct-17 22:30N 40°41' W 074°08'0 0.0
2017-Oct-17 22:00N 40°41' W 074°08'0 0.0
2017-Oct-17 21:30N 40°41' W 074°08'0 0.0
2017-Oct-17 21:00N 40°41' W 074°08'0 0.0
2017-Oct-17 20:30N 40°41' W 074°08'0 0.0
2017-Oct-17 20:00N 40°41' W 074°08'0 0.0
2017-Oct-17 19:30N 40°41' W 074°08'0 0.0
2017-Oct-17 19:00N 40°41' W 074°08'0 0.0
2017-Oct-17 18:30N 40°41' W 074°08'0 0.0
2017-Oct-17 18:00N 40°41' W 074°08'0 0.0
2017-Oct-17 17:30N 40°41' W 074°08'0 0.0
2017-Oct-17 17:00N 40°41' W 074°08'0 0.0
2017-Oct-17 16:30N 40°41' W 074°08'0 0.0
2017-Oct-17 16:00N 40°41' W 074°08'0 0.0
2017-Oct-17 15:30N 40°41' W 074°08'0 0.0
2017-Oct-17 15:00N 40°41' W 074°08'0 0.0
2017-Oct-17 14:30N 40°41' W 074°08'0 0.0
2017-Oct-17 14:00N 40°41' W 074°08'0 0.0
2017-Oct-17 13:30N 40°41' W 074°08'0 0.0
2017-Oct-17 13:00N 40°41' W 074°08'0 0.0
2017-Oct-17 12:30N 40°41' W 074°08'0 0.0
2017-Oct-17 12:00N 40°41' W 074°08'0 0.0
2017-Oct-17 11:30N 40°41' W 074°08'0 0.1
2017-Oct-17 11:00N 40°41' W 074°08'0 0.0
2017-Oct-17 10:30N 40°41' W 074°08'0 0.0
2017-Oct-17 10:00N 40°41' W 074°08'0 0.0
2017-Oct-17 09:30N 40°41' W 074°08'0 0.0
2017-Oct-17 09:00N 40°41' W 074°08'0 0.0
2017-Oct-17 08:30N 40°41' W 074°08'0 0.0
2017-Oct-17 08:00N 40°41' W 074°08'0 0.0
2017-Oct-17 07:30N 40°41' W 074°08'0 0.0
2017-Oct-17 07:00N 40°41' W 074°08'0 0.0
2017-Oct-17 06:30N 40°41' W 074°08'0 0.0
2017-Oct-17 06:00N 40°41' W 074°08'0 0.0
2017-Oct-17 05:30N 40°41' W 074°08'0 0.0
2017-Oct-17 05:00N 40°41' W 074°08'0 0.0
2017-Oct-17 04:30N 40°41' W 074°08'0 0.0
2017-Oct-17 04:00N 40°41' W 074°08'0 0.0
2017-Oct-17 03:30N 40°41' W 074°08'0 0.0
2017-Oct-17 03:00N 40°41' W 074°08'0 0.0
2017-Oct-17 02:30N 40°41' W 074°08'0 0.0
2017-Oct-17 01:57N 40°41' W 074°08'0 0.0
2017-Oct-17 01:30N 40°41' W 074°08'0 0.0
2017-Oct-17 01:00N 40°41' W 074°08'0 0.0
2017-Oct-17 00:30N 40°41' W 074°08'0 0.0
2017-Oct-17 00:00N 40°41' W 074°08'0 0.0
2017-Oct-16 23:30N 40°41' W 074°08'0 0.0
2017-Oct-16 23:00N 40°41' W 074°08'0 0.0
2017-Oct-16 22:30N 40°41' W 074°08'0 0.0
2017-Oct-16 22:00N 40°41' W 074°08'0 0.0
2017-Oct-16 21:30N 40°41' W 074°08'0 0.0
2017-Oct-16 21:00N 40°41' W 074°08'0 0.0
2017-Oct-16 20:30N 40°41' W 074°08'0 0.0
2017-Oct-16 20:00N 40°41' W 074°08'0 0.0
2017-Oct-16 19:30N 40°41' W 074°08'0 0.0
2017-Oct-16 19:00N 40°41' W 074°08'0 0.0
2017-Oct-16 18:30N 40°41' W 074°08'0 0.0
2017-Oct-16 18:00N 40°41' W 074°08'0 0.0
2017-Oct-16 17:30N 40°41' W 074°08'0 0.0
2017-Oct-16 17:00N 40°41' W 074°08'0 0.0
2017-Oct-16 16:30N 40°41' W 074°08'0 0.0
2017-Oct-16 16:00N 40°41' W 074°08'0 0.0
2017-Oct-16 15:30N 40°41' W 074°08'0 0.0
2017-Oct-16 15:00N 40°41' W 074°08'0 0.0
2017-Oct-16 14:30N 40°41' W 074°08'0 0.0
2017-Oct-16 13:30N 40°41' W 074°08'0 0.0
2017-Oct-16 13:00N 40°41' W 074°08'0 0.0
2017-Oct-16 12:30N 40°41' W 074°08'0 0.0
2017-Oct-16 12:00N 40°41' W 074°08'0 0.0
2017-Oct-16 11:30N 40°41' W 074°08'0 0.0
2017-Oct-16 10:57N 40°41' W 074°08'0 0.0
2017-Oct-16 10:30N 40°41' W 074°08'0 0.0
2017-Oct-16 10:00N 40°41' W 074°08'0 0.0
2017-Oct-16 09:30N 40°41' W 074°08'0 0.0
2017-Oct-16 09:00N 40°41' W 074°08'0 0.0
2017-Oct-16 08:30N 40°41' W 074°08'0 0.0
2017-Oct-16 08:00N 40°41' W 074°08'0 0.0
2017-Oct-16 07:30N 40°41' W 074°08'0 0.0
2017-Oct-16 07:00N 40°41' W 074°08'0 0.0
2017-Oct-16 06:30N 40°41' W 074°08'0 0.0
2017-Oct-16 06:00N 40°41' W 074°08'0 0.0
2017-Oct-16 05:30N 40°41' W 074°08'0 0.0
2017-Oct-16 05:00N 40°41' W 074°08'0 0.0
2017-Oct-16 04:30N 40°41' W 074°08'0 0.0
2017-Oct-16 04:00N 40°41' W 074°08'0 0.0
2017-Oct-16 03:30N 40°41' W 074°08'0 0.0
2017-Oct-16 02:57N 40°41' W 074°08'0 0.0
2017-Oct-16 02:30N 40°41' W 074°08'0 0.0
2017-Oct-16 02:00N 40°41' W 074°08'0 0.0
2017-Oct-16 01:30N 40°41' W 074°08'0 0.0
2017-Oct-16 01:00N 40°41' W 074°08'0 0.0
2017-Oct-16 00:30N 40°41' W 074°08'0 0.0
2017-Oct-16 00:00N 40°41' W 074°08'0 0.0
2017-Oct-15 23:30N 40°41' W 074°08'0 0.0
2017-Oct-15 23:00N 40°41' W 074°08'0 0.0
2017-Oct-15 22:30N 40°41' W 074°08'0 0.0
2017-Oct-15 22:00N 40°41' W 074°08'0 0.0
2017-Oct-15 21:30N 40°41' W 074°08'0 0.0
2017-Oct-15 21:00N 40°41' W 074°08'0 0.0
2017-Oct-15 20:30N 40°41' W 074°08'0 0.0
2017-Oct-15 20:00N 40°41' W 074°08'0 0.0
2017-Oct-15 19:30N 40°41' W 074°08'0 0.0
2017-Oct-15 19:00N 40°41' W 074°08'0 0.0
2017-Oct-15 18:30N 40°41' W 074°08'0 0.0
2017-Oct-15 18:00N 40°41' W 074°08'0 0.0
2017-Oct-15 17:30N 40°41' W 074°08'0 0.0
2017-Oct-15 17:00N 40°41' W 074°08'0 0.0
2017-Oct-15 16:30N 40°41' W 074°08'0 0.0
2017-Oct-15 16:00N 40°41' W 074°08'0 0.0
2017-Oct-15 15:30N 40°41' W 074°08'0 0.0
2017-Oct-15 15:00N 40°41' W 074°08'0 0.0
2017-Oct-15 14:00N 40°41' W 074°08'0 0.0
2017-Oct-15 13:30N 40°41' W 074°08'0 0.0
2017-Oct-15 13:00N 40°41' W 074°08'0 0.0
2017-Oct-15 12:30N 40°41' W 074°08'0 0.0
2017-Oct-15 12:00N 40°41' W 074°08'0 0.0
2017-Oct-15 11:30N 40°41' W 074°08'0 0.0
2017-Oct-15 11:00N 40°41' W 074°08'0 0.0
2017-Oct-15 10:30N 40°41' W 074°08'0 0.0
2017-Oct-15 10:00N 40°41' W 074°08'0 0.0
2017-Oct-15 09:30N 40°41' W 074°08'0 0.0
2017-Oct-15 09:00N 40°41' W 074°08'0 0.0
2017-Oct-15 08:30N 40°41' W 074°08'0 0.0
2017-Oct-15 08:00N 40°41' W 074°08'0 0.0
2017-Oct-15 07:30N 40°41' W 074°08'0 0.0
2017-Oct-15 07:00N 40°41' W 074°08'0 0.0
2017-Oct-15 06:30N 40°41' W 074°08'0 0.0
2017-Oct-15 06:00N 40°41' W 074°08'0 0.0
2017-Oct-15 05:30N 40°41' W 074°08'0 0.0
2017-Oct-15 05:00N 40°41' W 074°08'0 0.0
2017-Oct-15 04:30N 40°41' W 074°08'0 0.0
2017-Oct-15 04:00N 40°41' W 074°08'0 0.0
2017-Oct-15 03:30N 40°41' W 074°08'0 0.0
2017-Oct-15 03:00N 40°41' W 074°08'0 0.0
2017-Oct-15 02:30N 40°41' W 074°08'0 0.0
2017-Oct-15 02:00N 40°41' W 074°08'0 0.0
2017-Oct-15 01:30N 40°41' W 074°08'0 0.0
2017-Oct-15 01:00N 40°41' W 074°08'0 0.0
2017-Oct-15 00:30N 40°41' W 074°08'0 0.0
2017-Oct-15 00:00N 40°41' W 074°08'0 0.0
2017-Oct-14 23:30N 40°41' W 074°08'0 0.0
2017-Oct-14 23:00N 40°41' W 074°08'0 0.0
2017-Oct-14 22:30N 40°41' W 074°08'0 0.0
2017-Oct-14 21:57N 40°41' W 074°08'0 0.0
2017-Oct-14 21:30N 40°41' W 074°08'0 0.0
2017-Oct-14 20:57N 40°41' W 074°08'0 0.0
2017-Oct-14 20:27N 40°41' W 074°08'0 0.0
2017-Oct-14 20:00N 40°41' W 074°08'0 0.0
2017-Oct-14 19:30N 40°41' W 074°08'0 0.0
2017-Oct-14 19:00N 40°41' W 074°08'0 0.0
2017-Oct-14 18:27N 40°41' W 074°08'0 0.0
2017-Oct-14 18:00N 40°41' W 074°08'0 0.0
2017-Oct-14 17:30N 40°41' W 074°08'0 0.0
2017-Oct-14 17:00N 40°41' W 074°08'0 0.0
2017-Oct-14 16:30N 40°41' W 074°08'0 0.0
2017-Oct-14 16:00N 40°41' W 074°08'0 0.0
2017-Oct-14 15:30N 40°41' W 074°08'0 0.0
2017-Oct-14 15:00N 40°41' W 074°08'0 0.0
2017-Oct-14 14:30N 40°41' W 074°08'0 0.0
2017-Oct-14 13:57N 40°41' W 074°08'0 0.0
2017-Oct-14 13:30N 40°41' W 074°08'0 0.0
2017-Oct-14 12:57N 40°41' W 074°08'0 0.0
2017-Oct-14 12:30N 40°41' W 074°08'0 0.0
2017-Oct-14 11:57N 40°41' W 074°08'0 0.0
2017-Oct-14 11:30N 40°41' W 074°08'0 0.0
2017-Oct-14 11:00N 40°41' W 074°08'0 0.0
2017-Oct-14 10:30N 40°41' W 074°08'0 0.0
2017-Oct-14 10:00N 40°41' W 074°08'0 0.0
2017-Oct-14 09:30N 40°41' W 074°08'0 0.0
2017-Oct-14 08:57N 40°41' W 074°08'0 0.0
2017-Oct-14 08:30N 40°41' W 074°08'0 0.0
2017-Oct-14 08:00N 40°41' W 074°08'0 0.0
2017-Oct-14 07:27N 40°41' W 074°08'0 0.0
2017-Oct-14 07:00N 40°41' W 074°08'0 0.0
2017-Oct-14 06:30N 40°41' W 074°08'0 0.0
2017-Oct-14 06:00N 40°41' W 074°08'0 0.0
2017-Oct-14 05:30N 40°41' W 074°08'0 0.0
2017-Oct-14 05:00N 40°41' W 074°08'0 0.0
2017-Oct-14 04:30N 40°41' W 074°08'0 0.0
2017-Oct-14 04:00N 40°41' W 074°08'0 0.0
2017-Oct-14 03:30N 40°41' W 074°08'0 0.1
2017-Oct-14 02:57N 40°41' W 074°08'0 0.0
2017-Oct-14 02:30N 40°41' W 074°08'0 0.0
2017-Oct-14 02:00N 40°41' W 074°08'0 0.0
2017-Oct-14 01:30N 40°41' W 074°08'0 0.0
2017-Oct-14 01:00N 40°41' W 074°08'0 0.0
2017-Oct-14 00:30N 40°41' W 074°08'0 0.0
2017-Oct-14 00:00N 40°41' W 074°08'0 0.0
2017-Oct-13 23:30N 40°41' W 074°08'0 0.0
2017-Oct-13 23:00N 40°41' W 074°08'0 0.0
2017-Oct-13 22:27N 40°41' W 074°08'0 0.0
2017-Oct-13 22:00N 40°41' W 074°08'0 0.0
2017-Oct-13 21:30N 40°41' W 074°08'0 0.0
2017-Oct-13 21:00N 40°41' W 074°08'0 0.0
2017-Oct-13 20:30N 40°41' W 074°08'0 0.0
2017-Oct-13 20:00N 40°41' W 074°08'0 0.0
2017-Oct-13 19:30N 40°41' W 074°08'0 0.0
2017-Oct-13 19:00N 40°41' W 074°08'0 0.0
2017-Oct-13 18:27N 40°41' W 074°08'0 0.0
2017-Oct-13 18:00N 40°41' W 074°08'0 0.0
2017-Oct-13 17:30N 40°41' W 074°08'0 0.0
2017-Oct-13 17:00N 40°41' W 074°08'0 0.0
2017-Oct-13 16:30N 40°41' W 074°08'0 0.0
2017-Oct-13 16:00N 40°41' W 074°08'0 0.0
2017-Oct-13 15:27N 40°41' W 074°08'0 0.0
2017-Oct-13 15:00N 40°41' W 074°08'0 0.0
2017-Oct-13 14:27N 40°41' W 074°08'0 0.0
2017-Oct-13 14:00N 40°41' W 074°08'0 0.0
2017-Oct-13 13:30N 40°41' W 074°08'0 0.0
2017-Oct-13 12:57N 40°41' W 074°08'0 0.0
2017-Oct-13 12:30N 40°41' W 074°08'0 0.0
2017-Oct-13 12:00N 40°41' W 074°08'0 0.0
2017-Oct-13 11:30N 40°41' W 074°08'0 0.0
2017-Oct-13 11:00N 40°41' W 074°08'0 0.0
2017-Oct-13 10:30N 40°41' W 074°08'0 0.0
2017-Oct-13 10:00N 40°41' W 074°08'0 0.0
2017-Oct-13 09:30N 40°41' W 074°08'0 0.0
2017-Oct-13 09:00N 40°41' W 074°08'0 0.0
2017-Oct-13 08:30N 40°41' W 074°08'0 0.0
2017-Oct-13 08:00N 40°41' W 074°08'0 0.0
2017-Oct-13 07:30N 40°41' W 074°08'0 0.0
2017-Oct-13 07:00N 40°41' W 074°08'0 0.0
2017-Oct-13 06:27N 40°41' W 074°08'0 0.0
2017-Oct-13 06:00N 40°41' W 074°08'0 0.0
2017-Oct-13 05:30N 40°41' W 074°08'0 0.0
2017-Oct-13 05:00N 40°41' W 074°08'0 0.0
2017-Oct-13 04:30N 40°41' W 074°08'0 0.0
2017-Oct-13 03:57N 40°41' W 074°08'0 0.0
2017-Oct-13 03:30N 40°41' W 074°08'0 0.0
2017-Oct-13 03:00N 40°41' W 074°08'0 0.0
2017-Oct-13 02:30N 40°41' W 074°08'0 0.0
2017-Oct-13 02:00N 40°41' W 074°08'0 0.0
2017-Oct-13 01:30N 40°41' W 074°08'0 0.0
2017-Oct-13 00:57N 40°41' W 074°08'0 0.0
2017-Oct-13 00:30N 40°41' W 074°08'0 0.0
2017-Oct-13 00:00N 40°41' W 074°08'0 0.0
2017-Oct-12 23:27N 40°41' W 074°08'0 0.0
2017-Oct-12 23:00N 40°41' W 074°08'0 0.0
2017-Oct-12 22:30N 40°41' W 074°08'0 0.0
2017-Oct-12 21:54N 40°41' W 074°08'0 0.0
2017-Oct-12 21:27N 40°41' W 074°08'0 0.0
2017-Oct-12 20:57N 40°41' W 074°08'0 0.0
2017-Oct-12 20:30N 40°41' W 074°08'0 0.0
2017-Oct-12 19:57N 40°41' W 074°08'0 0.0
2017-Oct-12 19:30N 40°41' W 074°08'0 0.0
2017-Oct-12 19:00N 40°41' W 074°08'0 0.0
2017-Oct-12 18:30N 40°41' W 074°08'0 0.0
2017-Oct-12 18:00N 40°41' W 074°08'0 0.0
2017-Oct-12 17:30N 40°41' W 074°08'0 0.0
2017-Oct-12 17:00N 40°41' W 074°08'0 0.0
2017-Oct-12 16:30N 40°41' W 074°08'0 0.0
2017-Oct-12 16:00N 40°41' W 074°08'0 0.0
2017-Oct-12 15:30N 40°41' W 074°08'0 0.0
2017-Oct-12 14:54N 40°41' W 074°08'0 0.0
2017-Oct-12 14:27N 40°41' W 074°08'0 0.0
2017-Oct-12 14:00N 40°41' W 074°08'0 0.0
2017-Oct-12 13:30N 40°41' W 074°08'0 0.0
2017-Oct-12 13:00N 40°41' W 074°08'0 0.0
2017-Oct-12 12:27N 40°41' W 074°08'0 0.0
2017-Oct-12 11:51N 40°41' W 074°08'0 0.0
2017-Oct-12 11:27N 40°41' W 074°08'0 0.0
2017-Oct-12 10:57N 40°41' W 074°08'0 0.0
2017-Oct-12 10:30N 40°41' W 074°08'0 0.0
2017-Oct-12 10:00N 40°41' W 074°08'0 0.0
2017-Oct-12 09:30N 40°41' W 074°08'0 0.0
2017-Oct-12 09:00N 40°41' W 074°08'0 0.0
2017-Oct-12 08:27N 40°41' W 074°08'0 0.0
2017-Oct-12 07:57N 40°41' W 074°08'0 0.0
2017-Oct-12 07:30N 40°41' W 074°08'0 0.0
2017-Oct-12 06:57N 40°41' W 074°08'0 0.0
2017-Oct-12 06:30N 40°41' W 074°08'0 0.0
2017-Oct-12 06:00N 40°41' W 074°08'0 0.0
2017-Oct-12 05:30N 40°41' W 074°08'0 0.0
2017-Oct-12 05:00N 40°41' W 074°08'0 0.0
2017-Oct-12 04:30N 40°41' W 074°08'0 0.0
2017-Oct-12 04:00N 40°41' W 074°08'0 0.0
2017-Oct-12 03:30N 40°41' W 074°08'0 0.0
2017-Oct-12 02:57N 40°41' W 074°08'0 0.0
2017-Oct-12 02:27N 40°41' W 074°08'0 0.0
2017-Oct-12 02:00N 40°41' W 074°08'0 0.0
2017-Oct-12 01:30N 40°41' W 074°08'0 0.0
2017-Oct-12 01:00N 40°41' W 074°08'0 0.0
2017-Oct-12 00:30N 40°41' W 074°08'0 0.0
2017-Oct-11 23:57N 40°41' W 074°08'0 0.0
2017-Oct-11 23:30N 40°41' W 074°08'0 0.0
2017-Oct-11 23:00N 40°41' W 074°08'0 0.0
2017-Oct-11 22:30N 40°41' W 074°08'0 0.0
2017-Oct-11 21:54N 40°41' W 074°08'0 0.0
2017-Oct-11 21:24N 40°41' W 074°08'0 0.0
2017-Oct-11 20:54N 40°41' W 074°08'0 0.0
2017-Oct-11 20:24N 40°41' W 074°08'0 0.0
2017-Oct-11 20:00N 40°41' W 074°08'0 0.0
2017-Oct-11 19:30N 40°41' W 074°08'0 0.0
2017-Oct-11 19:00N 40°41' W 074°08'0 0.0
2017-Oct-11 18:30N 40°41' W 074°08'0 0.0
2017-Oct-11 18:00N 40°41' W 074°08'0 0.0
2017-Oct-11 17:30N 40°41' W 074°08'0 0.0
2017-Oct-11 17:00N 40°41' W 074°08'0 0.0
2017-Oct-11 00:00N 40°41' W 074°08'0 0.0
2017-Oct-10 23:30N 40°41' W 074°08'0 0.0
2017-Oct-10 23:00N 40°41' W 074°08'0 0.0
2017-Oct-10 22:30N 40°41' W 074°08'0 0.0
2017-Oct-10 22:00N 40°41' W 074°08'0 0.0
2017-Oct-10 21:30N 40°41' W 074°08'0 0.0
2017-Oct-10 21:00N 40°41' W 074°08'0 0.0
2017-Oct-10 20:30N 40°41' W 074°08'0 0.0
2017-Oct-10 20:00N 40°41' W 074°08'0 0.0
2017-Oct-10 19:27N 40°41' W 074°08'0 0.0
2017-Oct-10 18:57N 40°41' W 074°08'0 0.0
2017-Oct-10 18:30N 40°41' W 074°08'0 0.0
2017-Oct-10 18:00N 40°41' W 074°08'0 0.0
2017-Oct-10 17:30N 40°41' W 074°08'0 0.0
2017-Oct-10 17:00N 40°41' W 074°08'0 0.0
2017-Oct-10 16:30N 40°41' W 074°08'0 0.8
2017-Oct-10 16:00N 40°41' W 074°08'2 4.8
2017-Oct-10 15:30N 40°39' W 074°08'3 6.8
2017-Oct-10 15:00N 40°39' W 074°03'9 9.0
2017-Oct-10 14:00N 40°31' W 073°58'510.5
2017-Oct-10 13:30N 40°28' W 073°52'3 6.4
2017-Oct-10 13:00N 40°27' W 073°48'1 2.1
2017-Oct-10 12:20N 40°26' W 073°46'0 0.8
2017-Oct-10 12:00N 40°26' W 073°46'1 1.5
2017-Oct-10 11:25N 40°25' W 073°45'1 2.7
2017-Oct-10 11:00N 40°24' W 073°44'  

Dump ship's entire track history